Time,TemperatureF,DewpointF,PressureIn,WindDirection,WindDirectionDegrees,WindSpeedMPH,WindSpeedGustMPH,Humidity,HourlyPrecipIn,Conditions,Clouds,dailyrainin,SoftwareType,DateUTC
2013-01-23 00:03:00,14.0,-4.0,30.08,NW,310,8.0,-999.0,43,-99.99,,,-99.99,,2013-01-23 05:03:00,
2013-01-23 00:12:00,12.0,-6.0,30.07,West,280,8.0,-999.0,43,-99.99,,,-99.99,,2013-01-23 05:12:00,
2013-01-23 00:22:00,12.0,-6.0,30.07,West,270,3.0,-999.0,43,-99.99,,,-99.99,,2013-01-23 05:22:00,
2013-01-23 00:33:00,12.0,-8.0,30.07,West,280,6.0,-999.0,39,-99.99,,,-99.99,,2013-01-23 05:33:00,
2013-01-23 00:43:00,12.0,-4.0,30.07,West,270,10.0,-999.0,47,-99.99,,,-99.99,,2013-01-23 05:43:00,
2013-01-23 00:52:00,10.0,-6.0,30.07,WNW,300,5.0,-999.0,47,-99.99,,,-99.99,,2013-01-23 05:52:00,
2013-01-23 01:03:00,10.0,-6.0,30.07,WNW,300,5.0,-999.0,47,-99.99,,,-99.99,,2013-01-23 06:03:00,
2013-01-23 01:12:00,10.0,-8.0,30.07,WNW,290,7.0,-999.0,43,-99.99,,,-99.99,,2013-01-23 06:12:00,
2013-01-23 01:22:00,10.0,-8.0,30.07,North,0,0.0,-999.0,43,-99.99,,,-99.99,,2013-01-23 06:22:00,
2013-01-23 01:32:00,10.0,-8.0,30.07,North,0,0.0,-999.0,43,-99.99,,,-99.99,,2013-01-23 06:32:00,
2013-01-23 01:43:00,10.0,-8.0,30.08,NW,310,5.0,-999.0,43,-99.99,,,-99.99,,2013-01-23 06:43:00,
2013-01-23 01:52:00,10.0,-8.0,30.08,NW,310,9.0,-999.0,43,-99.99,,,-99.99,,2013-01-23 06:52:00,
2013-01-23 02:02:00,10.0,-8.0,30.08,NW,310,9.0,-999.0,43,-99.99,,,-99.99,,2013-01-23 07:02:00,
2013-01-23 02:12:00,10.0,-8.0,30.09,North,0,0.0,-999.0,43,-99.99,,,-99.99,,2013-01-23 07:12:00,
2013-01-23 02:22:00,10.0,-8.0,30.10,North,0,0.0,-999.0,43,-99.99,,,-99.99,,2013-01-23 07:22:00,
2013-01-23 02:33:00,10.0,-8.0,30.10,West,280,6.0,-999.0,43,-99.99,,,-99.99,,2013-01-23 07:33:00,
2013-01-23 02:42:00,10.0,-8.0,30.10,NW,310,5.0,-999.0,43,-99.99,,,-99.99,,2013-01-23 07:42:00,
2013-01-23 02:52:00,10.0,-8.0,30.10,West,280,7.0,-999.0,43,-99.99,,,-99.99,,2013-01-23 07:52:00,
2013-01-23 03:02:00,10.0,-8.0,30.10,West,280,7.0,-999.0,43,-99.99,,,-99.99,,2013-01-23 08:02:00,
2013-01-23 03:13:00,10.0,-8.0,30.10,NW,310,3.0,-999.0,43,-99.99,,,-99.99,,2013-01-23 08:13:00,
2013-01-23 03:22:00,10.0,-8.0,30.10,North,0,0.0,-999.0,43,-99.99,,,-99.99,,2013-01-23 08:22:00,
2013-01-23 03:33:00,10.0,-8.0,30.10,West,280,7.0,-999.0,43,-99.99,,,-99.99,,2013-01-23 08:33:00,
2013-01-23 03:42:00,9.0,-8.0,30.10,West,280,7.0,-999.0,46,-99.99,,,-99.99,,2013-01-23 08:42:00,
2013-01-23 03:52:00,9.0,-8.0,30.10,North,0,0.0,-999.0,46,-99.99,,,-99.99,,2013-01-23 08:52:00,
2013-01-23 04:03:00,9.0,-8.0,30.10,North,0,0.0,-999.0,46,-99.99,,,-99.99,,2013-01-23 09:03:00,
2013-01-23 04:12:00,9.0,-8.0,30.10,North,0,0.0,-999.0,46,-99.99,,,-99.99,,2013-01-23 09:12:00,
2013-01-23 04:22:00,9.0,-6.0,30.11,West,280,5.0,-999.0,51,-99.99,,,-99.99,,2013-01-23 09:22:00,
2013-01-23 04:32:00,9.0,-8.0,30.11,West,280,7.0,-999.0,46,-99.99,,,-99.99,,2013-01-23 09:32:00,
2013-01-23 04:43:00,9.0,-6.0,30.11,North,0,0.0,-999.0,51,-99.99,,,-99.99,,2013-01-23 09:43:00,
2013-01-23 04:52:00,9.0,-6.0,30.11,North,0,0.0,-999.0,51,-99.99,,,-99.99,,2013-01-23 09:52:00,
2013-01-23 05:03:00,9.0,-6.0,30.11,North,0,0.0,-999.0,51,-99.99,,,-99.99,,2013-01-23 10:03:00,
2013-01-23 05:12:00,9.0,-6.0,30.11,North,0,0.0,-999.0,51,-99.99,,,-99.99,,2013-01-23 10:12:00,
2013-01-23 05:23:00,9.0,-6.0,30.12,WNW,290,7.0,-999.0,51,-99.99,,,-99.99,,2013-01-23 10:23:00,
2013-01-23 05:33:00,9.0,-4.0,30.12,West,280,9.0,-999.0,55,-99.99,,,-99.99,,2013-01-23 10:33:00,
2013-01-23 05:43:00,9.0,-4.0,30.12,North,0,0.0,-999.0,55,-99.99,,,-99.99,,2013-01-23 10:43:00,
2013-01-23 05:52:00,9.0,-4.0,30.12,West,280,3.0,-999.0,55,-99.99,,,-99.99,,2013-01-23 10:52:00,
2013-01-23 06:03:00,9.0,-4.0,30.12,West,280,3.0,-999.0,55,-99.99,,,-99.99,,2013-01-23 11:03:00,
2013-01-23 06:12:00,9.0,-4.0,30.12,West,270,13.0,-999.0,55,-99.99,,,-99.99,,2013-01-23 11:12:00,
2013-01-23 06:23:00,9.0,-4.0,30.13,WNW,290,7.0,16.0,55,-99.99,,,-99.99,,2013-01-23 11:23:00,
2013-01-23 06:33:00,9.0,-4.0,30.13,North,0,0.0,-999.0,55,-99.99,,,-99.99,,2013-01-23 11:33:00,
2013-01-23 06:43:00,9.0,-4.0,30.13,North,0,0.0,-999.0,55,-99.99,,,-99.99,,2013-01-23 11:43:00,
2013-01-23 06:53:00,9.0,-4.0,30.13,West,270,8.0,-999.0,55,-99.99,,,-99.99,,2013-01-23 11:53:00,
2013-01-23 07:03:00,9.0,-4.0,30.13,West,270,8.0,-999.0,55,-99.99,,,-99.99,,2013-01-23 12:03:00,
2013-01-23 07:12:00,7.0,-4.0,30.13,West,280,5.0,-999.0,60,-99.99,,,-99.99,,2013-01-23 12:12:00,
2013-01-23 07:22:00,7.0,-4.0,30.13,North,0,0.0,-999.0,60,-99.99,,,-99.99,,2013-01-23 12:22:00,
2013-01-23 07:33:00,7.0,-4.0,30.13,West,260,9.0,-999.0,60,-99.99,,,-99.99,,2013-01-23 12:33:00,
2013-01-23 07:43:00,7.0,-4.0,30.13,West,280,6.0,-999.0,60,-99.99,,,-99.99,,2013-01-23 12:43:00,
2013-01-23 07:53:00,7.0,-4.0,30.14,West,280,5.0,-999.0,60,-99.99,,,-99.99,,2013-01-23 12:53:00,
2013-01-23 08:04:00,7.0,-4.0,30.14,West,280,5.0,-999.0,60,-99.99,,,-99.99,,2013-01-23 13:04:00,
2013-01-23 08:13:00,9.0,-2.0,30.14,North,0,0.0,-999.0,60,-99.99,,,-99.99,,2013-01-23 13:13:00,
2013-01-23 08:23:00,9.0,-2.0,30.14,North,0,0.0,-999.0,60,-99.99,,,-99.99,,2013-01-23 13:23:00,
2013-01-23 08:33:00,9.0,-2.0,30.15,West,280,6.0,-999.0,60,-99.99,,,-99.99,,2013-01-23 13:33:00,
2013-01-23 08:42:00,9.0,-2.0,30.14,West,270,12.0,-999.0,60,-99.99,,,-99.99,,2013-01-23 13:42:00,
2013-01-23 08:52:00,10.0,-2.0,30.14,West,270,10.0,-999.0,56,-99.99,,,-99.99,,2013-01-23 13:52:00,
2013-01-23 09:03:00,10.0,-2.0,30.14,West,270,10.0,-999.0,56,-99.99,,,-99.99,,2013-01-23 14:03:00,
2013-01-23 09:12:00,10.0,-2.0,30.14,WNW,300,5.0,-999.0,56,-99.99,,,-99.99,,2013-01-23 14:12:00,
2013-01-23 09:23:00,10.0,-2.0,30.14,West,280,7.0,-999.0,56,-99.99,,,-99.99,,2013-01-23 14:23:00,
2013-01-23 09:33:00,10.0,-2.0,30.15,North,0,0.0,-999.0,56,-99.99,,,-99.99,,2013-01-23 14:33:00,
2013-01-23 09:43:00,10.0,-2.0,30.15,WSW,250,7.0,17.0,56,-99.99,,,-99.99,,2013-01-23 14:43:00,
2013-01-23 09:53:00,10.0,-4.0,30.15,West,260,14.0,20.0,51,-99.99,,,-99.99,,2013-01-23 14:53:00,
2013-01-23 10:03:00,10.0,-4.0,30.15,West,260,14.0,20.0,51,-99.99,,,-99.99,,2013-01-23 15:03:00,
2013-01-23 10:12:00,10.0,-4.0,30.15,West,280,18.0,21.0,51,-99.99,,,-99.99,,2013-01-23 15:12:00,
2013-01-23 10:23:00,12.0,-4.0,30.14,West,270,16.0,18.0,47,-99.99,,,-99.99,,2013-01-23 15:23:00,
2013-01-23 10:33:00,12.0,-4.0,30.14,NW,310,9.0,18.0,47,-99.99,,,-99.99,,2013-01-23 15:33:00,
2013-01-23 10:43:00,12.0,-4.0,30.14,West,270,12.0,-999.0,47,-99.99,,,-99.99,,2013-01-23 15:43:00,
2013-01-23 10:53:00,14.0,-4.0,30.14,West,260,14.0,21.0,43,-99.99,,,-99.99,,2013-01-23 15:53:00,
2013-01-23 11:03:00,14.0,-4.0,30.14,West,260,14.0,21.0,43,-99.99,,,-99.99,,2013-01-23 16:03:00,
2013-01-23 11:12:00,14.0,-4.0,30.13,WSW,250,12.0,-999.0,43,-99.99,,,-99.99,,2013-01-23 16:12:00,
2013-01-23 11:23:00,14.0,-4.0,30.13,WNW,290,9.0,-999.0,43,-99.99,,,-99.99,,2013-01-23 16:23:00,
2013-01-23 11:33:00,14.0,-4.0,30.12,WNW,300,6.0,-999.0,43,-99.99,,,-99.99,,2013-01-23 16:33:00,
2013-01-23 11:42:00,14.0,-4.0,30.12,West,270,15.0,18.0,43,-99.99,,,-99.99,,2013-01-23 16:42:00,
2013-01-23 11:52:00,14.0,-6.0,30.12,West,270,21.0,23.0,40,-99.99,,,-99.99,,2013-01-23 16:52:00,
2013-01-23 12:03:00,14.0,-6.0,30.12,West,270,21.0,23.0,40,-99.99,,,-99.99,,2013-01-23 17:03:00,
2013-01-23 12:12:00,14.0,-8.0,30.11,WNW,300,12.0,22.0,36,-99.99,,,-99.99,,2013-01-23 17:12:00,
2013-01-23 12:23:00,14.0,-6.0,30.10,WSW,240,6.0,23.0,40,-99.99,,,-99.99,,2013-01-23 17:23:00,
2013-01-23 12:33:00,14.0,-6.0,30.10,West,270,14.0,22.0,40,-99.99,,,-99.99,,2013-01-23 17:33:00,
2013-01-23 12:42:00,14.0,-6.0,30.09,West,260,20.0,21.0,40,-99.99,,,-99.99,,2013-01-23 17:42:00,
2013-01-23 12:53:00,14.0,-6.0,30.08,WNW,290,8.0,21.0,40,-99.99,,,-99.99,,2013-01-23 17:53:00,
2013-01-23 13:03:00,14.0,-6.0,30.08,WNW,290,8.0,21.0,40,-99.99,,,-99.99,,2013-01-23 18:03:00,
2013-01-23 13:12:00,14.0,-6.0,30.08,West,280,8.0,17.0,40,-99.99,,,-99.99,,2013-01-23 18:12:00,
2013-01-23 13:23:00,16.0,-6.0,30.08,WNW,290,15.0,18.0,37,-99.99,,,-99.99,,2013-01-23 18:23:00,
2013-01-23 13:33:00,14.0,-8.0,30.07,West,260,16.0,23.0,36,-99.99,,,-99.99,,2013-01-23 18:33:00,
2013-01-23 13:43:00,14.0,-8.0,30.08,West,270,16.0,25.0,36,-99.99,,,-99.99,,2013-01-23 18:43:00,
2013-01-23 13:53:00,16.0,-8.0,30.07,WNW,300,5.0,21.0,34,-99.99,,,-99.99,,2013-01-23 18:53:00,
2013-01-23 14:03:00,16.0,-8.0,30.07,WNW,300,5.0,21.0,34,-99.99,,,-99.99,,2013-01-23 19:03:00,
2013-01-23 14:13:00,16.0,-6.0,30.07,NW,310,6.0,17.0,37,-99.99,,,-99.99,,2013-01-23 19:13:00,
2013-01-23 14:23:00,16.0,-8.0,30.08,WNW,290,9.0,18.0,34,-99.99,,,-99.99,,2013-01-23 19:23:00,
2013-01-23 14:33:00,16.0,-6.0,30.08,NNW,330,8.0,-999.0,37,-99.99,,,-99.99,,2013-01-23 19:33:00,
2013-01-23 14:43:00,16.0,-8.0,30.08,NW,310,10.0,-999.0,34,-99.99,,,-99.99,,2013-01-23 19:43:00,
2013-01-23 14:53:00,16.0,-8.0,30.08,West,270,20.0,21.0,34,-99.99,,,-99.99,,2013-01-23 19:53:00,
2013-01-23 15:03:00,16.0,-8.0,30.08,West,270,20.0,21.0,34,-99.99,,,-99.99,,2013-01-23 20:03:00,
2013-01-23 15:13:00,16.0,-8.0,30.08,NW,320,8.0,21.0,34,-99.99,,,-99.99,,2013-01-23 20:13:00,
2013-01-23 15:23:00,16.0,-8.0,30.08,NW,310,1.0,16.0,34,-99.99,,,-99.99,,2013-01-23 20:23:00,
2013-01-23 15:33:00,16.0,-6.0,30.08,NNW,330,13.0,-999.0,37,-99.99,,,-99.99,,2013-01-23 20:33:00,
2013-01-23 15:43:00,16.0,-8.0,30.08,WNW,290,7.0,16.0,34,-99.99,,,-99.99,,2013-01-23 20:43:00,
2013-01-23 15:53:00,14.0,-8.0,30.08,WSW,250,16.0,-999.0,36,-99.99,,,-99.99,,2013-01-23 20:53:00,
2013-01-23 16:03:00,14.0,-8.0,30.08,WSW,250,16.0,-999.0,36,-99.99,,,-99.99,,2013-01-23 21:03:00,
2013-01-23 16:12:00,14.0,-8.0,30.08,NW,320,6.0,16.0,36,-99.99,,,-99.99,,2013-01-23 21:12:00,
2013-01-23 16:23:00,14.0,-8.0,30.08,North,0,0.0,-999.0,36,-99.99,,,-99.99,,2013-01-23 21:23:00,
2013-01-23 16:33:00,14.0,-8.0,30.08,NW,310,14.0,-999.0,36,-99.99,,,-99.99,,2013-01-23 21:33:00,
2013-01-23 16:43:00,14.0,-8.0,30.09,NW,310,6.0,16.0,36,-99.99,,,-99.99,,2013-01-23 21:43:00,
2013-01-23 16:52:00,14.0,-8.0,30.09,North,0,0.0,-999.0,36,-99.99,,,-99.99,,2013-01-23 21:52:00,
2013-01-23 17:03:00,14.0,-8.0,30.09,North,0,0.0,-999.0,36,-99.99,,,-99.99,,2013-01-23 22:03:00,
2013-01-23 17:12:00,12.0,-9.0,30.09,West,280,8.0,-999.0,36,-99.99,,,-99.99,,2013-01-23 22:12:00,
2013-01-23 17:23:00,12.0,-9.0,30.10,North,0,0.0,-999.0,36,-99.99,,,-99.99,,2013-01-23 22:23:00,
2013-01-23 17:33:00,12.0,-9.0,30.10,NW,320,6.0,-999.0,36,-99.99,,,-99.99,,2013-01-23 22:33:00,
2013-01-23 17:42:00,12.0,-9.0,30.11,NW,310,5.0,-999.0,36,-99.99,,,-99.99,,2013-01-23 22:42:00,
2013-01-23 17:53:00,12.0,-9.0,30.11,WNW,290,6.0,-999.0,36,-99.99,,,-99.99,,2013-01-23 22:53:00,
2013-01-23 18:03:00,12.0,-9.0,30.11,WNW,290,6.0,-999.0,36,-99.99,,,-99.99,,2013-01-23 23:03:00,
2013-01-23 18:13:00,12.0,-9.0,30.11,North,0,0.0,-999.0,36,-99.99,,,-99.99,,2013-01-23 23:13:00,
2013-01-23 18:23:00,12.0,-9.0,30.11,West,280,12.0,16.0,36,-99.99,,,-99.99,,2013-01-23 23:23:00,
2013-01-23 18:33:00,12.0,-9.0,30.11,WSW,250,8.0,-999.0,36,-99.99,,,-99.99,,2013-01-23 23:33:00,
2013-01-23 18:43:00,12.0,-9.0,30.11,West,260,7.0,18.0,36,-99.99,,,-99.99,,2013-01-23 23:43:00,
2013-01-23 18:53:00,12.0,-9.0,30.12,WNW,290,3.0,17.0,36,-99.99,,,-99.99,,2013-01-23 23:53:00,
2013-01-23 19:03:00,12.0,-9.0,30.12,WNW,290,3.0,17.0,36,-99.99,,,-99.99,,2013-01-24 00:03:00,
2013-01-23 19:12:00,12.0,-9.0,30.12,WNW,300,10.0,16.0,36,-99.99,,,-99.99,,2013-01-24 00:12:00,
2013-01-23 19:22:00,10.0,-9.0,30.12,NW,320,3.0,-999.0,39,-99.99,,,-99.99,,2013-01-24 00:22:00,
2013-01-23 19:33:00,10.0,-9.0,30.12,WNW,300,3.0,-999.0,39,-99.99,,,-99.99,,2013-01-24 00:33:00,
2013-01-23 19:42:00,10.0,-9.0,30.12,WNW,290,10.0,17.0,39,-99.99,,,-99.99,,2013-01-24 00:42:00,
2013-01-23 19:53:00,10.0,-9.0,30.13,West,280,13.0,17.0,39,-99.99,,,-99.99,,2013-01-24 00:53:00,
2013-01-23 20:03:00,10.0,-9.0,30.13,West,280,13.0,17.0,39,-99.99,,,-99.99,,2013-01-24 01:03:00,
2013-01-23 20:12:00,10.0,-11.0,30.13,North,0,0.0,-999.0,36,-99.99,,,-99.99,,2013-01-24 01:12:00,
2013-01-23 20:23:00,10.0,-11.0,30.13,West,260,9.0,16.0,36,-99.99,,,-99.99,,2013-01-24 01:23:00,
2013-01-23 20:33:00,10.0,-11.0,30.13,North,0,0.0,-999.0,36,-99.99,,,-99.99,,2013-01-24 01:33:00,
2013-01-23 20:42:00,10.0,-11.0,30.13,WNW,290,5.0,-999.0,36,-99.99,,,-99.99,,2013-01-24 01:42:00,
2013-01-23 20:52:00,10.0,-11.0,30.13,West,270,5.0,-999.0,36,-99.99,,,-99.99,,2013-01-24 01:52:00,
2013-01-23 21:03:00,10.0,-11.0,30.13,West,270,5.0,-999.0,36,-99.99,,,-99.99,,2013-01-24 02:03:00,
2013-01-23 21:12:00,10.0,-99.9,30.13,North,0,0.0,16.0,-999,-99.99,,,-99.99,,2013-01-24 02:12:00,
2013-01-23 21:23:00,9.0,-99.9,30.13,West,280,1.0,-999.0,-999,-99.99,,,-99.99,,2013-01-24 02:23:00,
2013-01-23 21:33:00,9.0,-99.9,30.13,WNW,300,7.0,-999.0,-999,-99.99,,,-99.99,,2013-01-24 02:33:00,
2013-01-23 21:43:00,9.0,-99.9,30.13,WNW,300,7.0,-999.0,-999,-99.99,,,-99.99,,2013-01-24 02:43:00,
2013-01-23 21:53:00,9.0,-99.9,30.13,WNW,300,7.0,-999.0,-999,-99.99,,,-99.99,,2013-01-24 02:53:00,
2013-01-23 22:03:00,9.0,-99.9,30.13,NW,320,3.0,-999.0,-999,-99.99,,,-99.99,,2013-01-24 03:03:00,
2013-01-23 22:12:00,9.0,-11.0,30.13,West,260,7.0,-999.0,39,-99.99,,,-99.99,,2013-01-24 03:12:00,
2013-01-23 22:22:00,9.0,-11.0,30.13,WNW,300,1.0,-999.0,39,-99.99,,,-99.99,,2013-01-24 03:22:00,
2013-01-23 22:33:00,9.0,-11.0,30.13,WNW,300,5.0,-999.0,39,-99.99,,,-99.99,,2013-01-24 03:33:00,
2013-01-23 22:43:00,9.0,-11.0,30.14,North,0,0.0,-999.0,39,-99.99,,,-99.99,,2013-01-24 03:43:00,
2013-01-23 22:52:00,9.0,-11.0,30.13,North,0,0.0,-999.0,39,-99.99,,,-99.99,,2013-01-24 03:52:00,
2013-01-23 23:03:00,9.0,-11.0,30.13,North,0,0.0,-999.0,39,-99.99,,,-99.99,,2013-01-24 04:03:00,
2013-01-23 23:12:00,9.0,-11.0,30.14,North,0,0.0,-999.0,39,-99.99,,,-99.99,,2013-01-24 04:12:00,
2013-01-23 23:22:00,9.0,-11.0,30.13,North,0,0.0,-999.0,39,-99.99,,,-99.99,,2013-01-24 04:22:00,
2013-01-23 23:33:00,9.0,-11.0,30.13,North,0,0.0,-999.0,39,-99.99,,,-99.99,,2013-01-24 04:33:00,
2013-01-23 23:42:00,7.0,-9.0,30.13,North,0,0.0,-999.0,46,-99.99,,,-99.99,,2013-01-24 04:42:00,
2013-01-23 23:52:00,7.0,-9.0,30.13,North,0,0.0,-999.0,46,-99.99,,,-99.99,,2013-01-24 04:52:00,